sensor_id;sensor_type;location;lat;lon;timestamp;P1;durP1;ratioP1;P2;durP2;ratioP2
69892;SDS011;61212;42.688;22.176;2022-08-19T00:01:56;7.78;;;4.68;;
69892;SDS011;61212;42.688;22.176;2022-08-19T00:04:24;10.40;;;4.45;;
69892;SDS011;61212;42.688;22.176;2022-08-19T00:07:09;9.55;;;4.80;;
69892;SDS011;61212;42.688;22.176;2022-08-19T00:09:35;7.00;;;4.75;;
69892;SDS011;61212;42.688;22.176;2022-08-19T00:12:02;7.53;;;4.53;;
69892;SDS011;61212;42.688;22.176;2022-08-19T00:14:28;7.60;;;5.05;;
69892;SDS011;61212;42.688;22.176;2022-08-19T00:16:56;8.77;;;5.15;;
69892;SDS011;61212;42.688;22.176;2022-08-19T00:19:23;9.02;;;5.13;;
69892;SDS011;61212;42.688;22.176;2022-08-19T00:24:52;9.43;;;4.75;;
69892;SDS011;61212;42.688;22.176;2022-08-19T00:27:19;7.03;;;3.90;;
69892;SDS011;61212;42.688;22.176;2022-08-19T00:29:45;7.75;;;4.13;;
69892;SDS011;61212;42.688;22.176;2022-08-19T00:32:11;9.07;;;5.13;;
69892;SDS011;61212;42.688;22.176;2022-08-19T00:34:37;6.57;;;4.65;;
69892;SDS011;61212;42.688;22.176;2022-08-19T00:37:03;6.85;;;4.50;;
69892;SDS011;61212;42.688;22.176;2022-08-19T00:39:29;8.40;;;4.40;;
69892;SDS011;61212;42.688;22.176;2022-08-19T00:41:55;7.88;;;4.78;;
69892;SDS011;61212;42.688;22.176;2022-08-19T00:44:26;6.15;;;4.43;;
69892;SDS011;61212;42.688;22.176;2022-08-19T00:46:52;11.73;;;4.68;;
69892;SDS011;61212;42.688;22.176;2022-08-19T00:49:23;8.43;;;4.65;;
69892;SDS011;61212;42.688;22.176;2022-08-19T00:51:53;7.22;;;4.85;;
69892;SDS011;61212;42.688;22.176;2022-08-19T00:54:20;6.10;;;4.72;;
69892;SDS011;61212;42.688;22.176;2022-08-19T00:56:46;9.65;;;4.30;;
69892;SDS011;61212;42.688;22.176;2022-08-19T00:59:13;11.73;;;5.07;;
69892;SDS011;61212;42.688;22.176;2022-08-19T01:01:40;11.27;;;4.55;;
69892;SDS011;61212;42.688;22.176;2022-08-19T01:04:07;7.22;;;4.15;;
69892;SDS011;61212;42.688;22.176;2022-08-19T01:06:35;11.27;;;5.70;;
69892;SDS011;61212;42.688;22.176;2022-08-19T01:09:02;5.93;;;4.07;;
69892;SDS011;61212;42.688;22.176;2022-08-19T01:11:30;7.40;;;4.60;;
69892;SDS011;61212;42.688;22.176;2022-08-19T01:13:56;9.63;;;5.88;;
69892;SDS011;61212;42.688;22.176;2022-08-19T01:16:24;7.10;;;4.88;;
69892;SDS011;61212;42.688;22.176;2022-08-19T01:18:50;7.50;;;4.82;;
69892;SDS011;61212;42.688;22.176;2022-08-19T01:23:46;10.07;;;4.68;;
69892;SDS011;61212;42.688;22.176;2022-08-19T01:26:14;9.88;;;5.13;;
69892;SDS011;61212;42.688;22.176;2022-08-19T01:28:41;7.68;;;4.85;;
69892;SDS011;61212;42.688;22.176;2022-08-19T01:31:13;7.72;;;4.43;;
69892;SDS011;61212;42.688;22.176;2022-08-19T01:33:40;6.63;;;4.93;;
69892;SDS011;61212;42.688;22.176;2022-08-19T01:36:10;10.93;;;4.72;;
69892;SDS011;61212;42.688;22.176;2022-08-19T01:38:38;8.15;;;5.10;;
69892;SDS011;61212;42.688;22.176;2022-08-19T01:41:04;8.80;;;4.97;;
69892;SDS011;61212;42.688;22.176;2022-08-19T01:43:31;7.90;;;4.35;;
69892;SDS011;61212;42.688;22.176;2022-08-19T01:45:57;6.00;;;4.47;;
69892;SDS011;61212;42.688;22.176;2022-08-19T01:48:24;10.82;;;5.10;;
69892;SDS011;61212;42.688;22.176;2022-08-19T01:50:50;6.28;;;4.07;;
69892;SDS011;61212;42.688;22.176;2022-08-19T01:53:16;7.53;;;4.95;;
69892;SDS011;61212;42.688;22.176;2022-08-19T01:55:43;6.40;;;4.38;;
69892;SDS011;61212;42.688;22.176;2022-08-19T01:58:15;8.82;;;5.05;;
69892;SDS011;61212;42.688;22.176;2022-08-19T02:00:43;10.50;;;5.20;;
69892;SDS011;61212;42.688;22.176;2022-08-19T02:03:10;10.02;;;5.45;;
69892;SDS011;61212;42.688;22.176;2022-08-19T02:05:37;10.95;;;5.15;;
69892;SDS011;61212;42.688;22.176;2022-08-19T02:08:04;10.93;;;4.93;;
69892;SDS011;61212;42.688;22.176;2022-08-19T02:10:30;6.32;;;5.18;;
69892;SDS011;61212;42.688;22.176;2022-08-19T02:12:57;8.27;;;4.80;;
69892;SDS011;61212;42.688;22.176;2022-08-19T02:15:23;12.85;;;5.88;;
69892;SDS011;61212;42.688;22.176;2022-08-19T02:17:50;11.00;;;4.68;;
69892;SDS011;61212;42.688;22.176;2022-08-19T02:20:17;9.07;;;5.00;;
69892;SDS011;61212;42.688;22.176;2022-08-19T02:22:43;8.85;;;4.65;;
69892;SDS011;61212;42.688;22.176;2022-08-19T02:25:10;11.10;;;5.47;;
69892;SDS011;61212;42.688;22.176;2022-08-19T02:27:37;9.23;;;5.15;;
69892;SDS011;61212;42.688;22.176;2022-08-19T02:30:10;10.00;;;5.40;;
69892;SDS011;61212;42.688;22.176;2022-08-19T02:32:36;9.80;;;5.35;;
69892;SDS011;61212;42.688;22.176;2022-08-19T02:35:03;10.80;;;4.63;;
69892;SDS011;61212;42.688;22.176;2022-08-19T02:40:33;11.02;;;4.78;;
69892;SDS011;61212;42.688;22.176;2022-08-19T02:43:00;9.30;;;4.80;;
69892;SDS011;61212;42.688;22.176;2022-08-19T02:45:27;10.30;;;4.50;;
69892;SDS011;61212;42.688;22.176;2022-08-19T02:47:53;9.18;;;5.00;;
69892;SDS011;61212;42.688;22.176;2022-08-19T02:50:19;9.38;;;4.85;;
69892;SDS011;61212;42.688;22.176;2022-08-19T02:55:50;7.03;;;4.80;;
69892;SDS011;61212;42.688;22.176;2022-08-19T02:58:17;8.35;;;4.65;;
69892;SDS011;61212;42.688;22.176;2022-08-19T03:00:48;9.90;;;4.90;;
69892;SDS011;61212;42.688;22.176;2022-08-19T03:03:14;9.07;;;4.90;;
69892;SDS011;61212;42.688;22.176;2022-08-19T03:05:41;7.28;;;4.68;;
69892;SDS011;61212;42.688;22.176;2022-08-19T03:08:08;9.88;;;5.40;;
69892;SDS011;61212;42.688;22.176;2022-08-19T03:10:46;8.75;;;5.50;;
69892;SDS011;61212;42.688;22.176;2022-08-19T03:13:14;8.35;;;5.25;;
69892;SDS011;61212;42.688;22.176;2022-08-19T03:15:42;9.00;;;5.13;;
69892;SDS011;61212;42.688;22.176;2022-08-19T03:18:08;6.50;;;4.50;;
69892;SDS011;61212;42.688;22.176;2022-08-19T03:20:39;7.88;;;4.97;;
69892;SDS011;61212;42.688;22.176;2022-08-19T03:23:05;5.88;;;4.50;;
69892;SDS011;61212;42.688;22.176;2022-08-19T03:25:35;6.05;;;4.35;;
69892;SDS011;61212;42.688;22.176;2022-08-19T03:28:02;11.02;;;4.75;;
69892;SDS011;61212;42.688;22.176;2022-08-19T03:30:28;8.00;;;4.90;;
69892;SDS011;61212;42.688;22.176;2022-08-19T03:32:54;12.25;;;5.05;;
69892;SDS011;61212;42.688;22.176;2022-08-19T03:35:20;9.43;;;5.30;;
69892;SDS011;61212;42.688;22.176;2022-08-19T03:37:47;7.00;;;4.47;;
69892;SDS011;61212;42.688;22.176;2022-08-19T03:40:13;6.57;;;4.50;;
69892;SDS011;61212;42.688;22.176;2022-08-19T03:42:39;8.93;;;5.05;;
69892;SDS011;61212;42.688;22.176;2022-08-19T03:45:07;9.52;;;5.32;;
69892;SDS011;61212;42.688;22.176;2022-08-19T03:47:35;8.10;;;4.70;;
69892;SDS011;61212;42.688;22.176;2022-08-19T03:50:02;9.43;;;4.90;;
69892;SDS011;61212;42.688;22.176;2022-08-19T03:55:33;8.00;;;4.90;;
69892;SDS011;61212;42.688;22.176;2022-08-19T03:57:59;8.25;;;5.03;;
69892;SDS011;61212;42.688;22.176;2022-08-19T04:00:25;9.82;;;5.38;;
69892;SDS011;61212;42.688;22.176;2022-08-19T04:02:51;8.68;;;5.10;;
69892;SDS011;61212;42.688;22.176;2022-08-19T04:05:17;7.68;;;5.00;;
69892;SDS011;61212;42.688;22.176;2022-08-19T04:07:43;10.15;;;5.10;;
69892;SDS011;61212;42.688;22.176;2022-08-19T04:10:09;9.60;;;5.15;;
69892;SDS011;61212;42.688;22.176;2022-08-19T04:12:36;10.07;;;5.20;;
69892;SDS011;61212;42.688;22.176;2022-08-19T04:15:02;10.02;;;5.53;;
69892;SDS011;61212;42.688;22.176;2022-08-19T04:17:29;8.13;;;4.95;;
69892;SDS011;61212;42.688;22.176;2022-08-19T04:19:55;7.28;;;5.45;;
69892;SDS011;61212;42.688;22.176;2022-08-19T04:22:22;11.55;;;6.50;;
69892;SDS011;61212;42.688;22.176;2022-08-19T04:24:48;11.80;;;5.28;;
69892;SDS011;61212;42.688;22.176;2022-08-19T04:27:14;9.32;;;5.65;;
69892;SDS011;61212;42.688;22.176;2022-08-19T04:29:40;8.40;;;5.28;;
69892;SDS011;61212;42.688;22.176;2022-08-19T04:32:06;9.73;;;5.78;;
69892;SDS011;61212;42.688;22.176;2022-08-19T04:34:33;11.45;;;6.07;;
69892;SDS011;61212;42.688;22.176;2022-08-19T04:36:59;12.98;;;6.03;;
69892;SDS011;61212;42.688;22.176;2022-08-19T04:39:28;14.82;;;5.55;;
69892;SDS011;61212;42.688;22.176;2022-08-19T04:42:13;11.18;;;6.32;;
69892;SDS011;61212;42.688;22.176;2022-08-19T04:44:58;13.18;;;6.13;;
69892;SDS011;61212;42.688;22.176;2022-08-19T04:47:25;10.68;;;6.38;;
69892;SDS011;61212;42.688;22.176;2022-08-19T04:49:51;16.58;;;6.45;;
69892;SDS011;61212;42.688;22.176;2022-08-19T04:52:25;14.30;;;6.68;;
69892;SDS011;61212;42.688;22.176;2022-08-19T04:54:51;13.68;;;6.28;;
69892;SDS011;61212;42.688;22.176;2022-08-19T04:57:17;9.95;;;6.35;;
69892;SDS011;61212;42.688;22.176;2022-08-19T04:59:43;10.27;;;6.07;;
69892;SDS011;61212;42.688;22.176;2022-08-19T05:02:11;16.75;;;6.70;;
69892;SDS011;61212;42.688;22.176;2022-08-19T05:04:37;11.43;;;6.25;;
69892;SDS011;61212;42.688;22.176;2022-08-19T05:07:04;9.75;;;6.30;;
69892;SDS011;61212;42.688;22.176;2022-08-19T05:09:31;14.10;;;6.70;;
69892;SDS011;61212;42.688;22.176;2022-08-19T05:11:57;10.00;;;5.55;;
69892;SDS011;61212;42.688;22.176;2022-08-19T05:14:23;9.45;;;5.72;;
69892;SDS011;61212;42.688;22.176;2022-08-19T05:16:49;12.10;;;6.13;;
69892;SDS011;61212;42.688;22.176;2022-08-19T05:19:15;10.63;;;5.68;;
69892;SDS011;61212;42.688;22.176;2022-08-19T05:22:00;10.80;;;6.25;;
69892;SDS011;61212;42.688;22.176;2022-08-19T05:24:45;11.38;;;5.97;;
69892;SDS011;61212;42.688;22.176;2022-08-19T05:27:11;8.38;;;5.72;;
69892;SDS011;61212;42.688;22.176;2022-08-19T05:29:37;9.95;;;6.38;;
69892;SDS011;61212;42.688;22.176;2022-08-19T05:32:04;8.68;;;6.75;;
69892;SDS011;61212;42.688;22.176;2022-08-19T05:34:32;9.95;;;6.28;;
69892;SDS011;61212;42.688;22.176;2022-08-19T05:36:59;11.10;;;6.20;;
69892;SDS011;61212;42.688;22.176;2022-08-19T05:39:26;11.95;;;6.82;;
69892;SDS011;61212;42.688;22.176;2022-08-19T05:41:54;23.52;;;12.65;;
69892;SDS011;61212;42.688;22.176;2022-08-19T05:44:22;24.17;;;11.65;;
69892;SDS011;61212;42.688;22.176;2022-08-19T05:46:48;17.80;;;9.32;;
69892;SDS011;61212;42.688;22.176;2022-08-19T05:49:18;22.25;;;13.27;;
69892;SDS011;61212;42.688;22.176;2022-08-19T05:51:44;22.23;;;13.82;;
69892;SDS011;61212;42.688;22.176;2022-08-19T05:54:10;25.17;;;12.73;;
69892;SDS011;61212;42.688;22.176;2022-08-19T05:56:38;25.63;;;15.15;;
69892;SDS011;61212;42.688;22.176;2022-08-19T05:59:05;22.45;;;13.75;;
69892;SDS011;61212;42.688;22.176;2022-08-19T06:01:34;18.08;;;12.60;;
69892;SDS011;61212;42.688;22.176;2022-08-19T06:04:01;12.98;;;9.43;;
69892;SDS011;61212;42.688;22.176;2022-08-19T06:09:40;12.88;;;8.77;;
69892;SDS011;61212;42.688;22.176;2022-08-19T06:14:59;23.45;;;12.02;;
69892;SDS011;61212;42.688;22.176;2022-08-19T06:17:26;16.17;;;12.38;;
69892;SDS011;61212;42.688;22.176;2022-08-19T06:19:52;20.60;;;13.15;;
69892;SDS011;61212;42.688;22.176;2022-08-19T06:22:18;23.88;;;13.07;;
69892;SDS011;61212;42.688;22.176;2022-08-19T06:24:44;14.25;;;10.45;;
69892;SDS011;61212;42.688;22.176;2022-08-19T06:27:10;14.70;;;9.35;;
69892;SDS011;61212;42.688;22.176;2022-08-19T06:29:36;20.42;;;8.15;;
69892;SDS011;61212;42.688;22.176;2022-08-19T06:32:03;10.50;;;7.35;;
69892;SDS011;61212;42.688;22.176;2022-08-19T06:34:31;10.93;;;6.05;;
69892;SDS011;61212;42.688;22.176;2022-08-19T06:51:56;14.02;;;6.38;;
69892;SDS011;61212;42.688;22.176;2022-08-19T06:54:23;12.40;;;6.30;;
69892;SDS011;61212;42.688;22.176;2022-08-19T06:56:49;8.32;;;6.22;;
69892;SDS011;61212;42.688;22.176;2022-08-19T06:59:18;12.02;;;6.10;;
69892;SDS011;61212;42.688;22.176;2022-08-19T07:01:47;11.77;;;6.82;;
69892;SDS011;61212;42.688;22.176;2022-08-19T07:04:15;9.88;;;6.43;;
69892;SDS011;61212;42.688;22.176;2022-08-19T07:06:42;10.60;;;6.32;;
69892;SDS011;61212;42.688;22.176;2022-08-19T07:09:09;8.65;;;5.55;;
69892;SDS011;61212;42.688;22.176;2022-08-19T07:11:35;6.95;;;5.68;;
69892;SDS011;61212;42.688;22.176;2022-08-19T07:14:02;11.85;;;5.93;;
69892;SDS011;61212;42.688;22.176;2022-08-19T07:16:28;9.25;;;5.03;;
69892;SDS011;61212;42.688;22.176;2022-08-19T07:22:00;10.00;;;5.28;;
69892;SDS011;61212;42.688;22.176;2022-08-19T07:24:27;8.02;;;4.90;;
69892;SDS011;61212;42.688;22.176;2022-08-19T07:26:54;9.88;;;5.00;;
69892;SDS011;61212;42.688;22.176;2022-08-19T07:29:22;13.23;;;5.65;;
69892;SDS011;61212;42.688;22.176;2022-08-19T07:38:20;8.40;;;5.32;;
69892;SDS011;61212;42.688;22.176;2022-08-19T07:49:35;10.20;;;5.60;;
69892;SDS011;61212;42.688;22.176;2022-08-19T07:52:33;10.40;;;5.65;;
69892;SDS011;61212;42.688;22.176;2022-08-19T07:55:01;10.25;;;5.00;;
69892;SDS011;61212;42.688;22.176;2022-08-19T07:57:28;9.05;;;5.45;;
69892;SDS011;61212;42.688;22.176;2022-08-19T07:59:54;7.75;;;4.70;;
69892;SDS011;61212;42.688;22.176;2022-08-19T08:02:21;9.82;;;4.85;;
69892;SDS011;61212;42.688;22.176;2022-08-19T08:04:47;8.32;;;5.10;;
69892;SDS011;61212;42.688;22.176;2022-08-19T08:07:32;13.57;;;5.72;;
69892;SDS011;61212;42.688;22.176;2022-08-19T08:10:16;8.73;;;4.80;;
69892;SDS011;61212;42.688;22.176;2022-08-19T08:12:42;6.90;;;4.97;;
69892;SDS011;61212;42.688;22.176;2022-08-19T08:15:10;8.50;;;5.18;;
69892;SDS011;61212;42.688;22.176;2022-08-19T08:17:39;6.57;;;4.47;;
69892;SDS011;61212;42.688;22.176;2022-08-19T08:20:05;10.68;;;4.95;;
69892;SDS011;61212;42.688;22.176;2022-08-19T08:22:32;8.65;;;4.53;;
69892;SDS011;61212;42.688;22.176;2022-08-19T08:27:59;10.65;;;4.30;;
69892;SDS011;61212;42.688;22.176;2022-08-19T08:36:15;12.77;;;4.47;;
69892;SDS011;61212;42.688;22.176;2022-08-19T08:44:23;10.32;;;3.90;;
69892;SDS011;61212;42.688;22.176;2022-08-19T08:46:54;9.75;;;5.03;;
69892;SDS011;61212;42.688;22.176;2022-08-19T08:51:59;14.90;;;4.22;;
69892;SDS011;61212;42.688;22.176;2022-08-19T08:54:28;6.18;;;4.13;;
69892;SDS011;61212;42.688;22.176;2022-08-19T08:56:56;12.25;;;5.10;;
69892;SDS011;61212;42.688;22.176;2022-08-19T09:01:51;7.53;;;4.50;;
69892;SDS011;61212;42.688;22.176;2022-08-19T09:04:17;9.00;;;4.53;;
69892;SDS011;61212;42.688;22.176;2022-08-19T09:06:48;9.18;;;4.68;;
69892;SDS011;61212;42.688;22.176;2022-08-19T09:09:27;6.35;;;5.40;;
69892;SDS011;61212;42.688;22.176;2022-08-19T09:17:02;9.70;;;5.30;;
69892;SDS011;61212;42.688;22.176;2022-08-19T09:19:29;12.23;;;5.93;;
69892;SDS011;61212;42.688;22.176;2022-08-19T09:21:55;7.63;;;5.13;;
69892;SDS011;61212;42.688;22.176;2022-08-19T09:24:21;9.32;;;5.03;;
69892;SDS011;61212;42.688;22.176;2022-08-19T09:26:47;10.80;;;5.38;;
69892;SDS011;61212;42.688;22.176;2022-08-19T09:29:13;6.90;;;4.57;;
69892;SDS011;61212;42.688;22.176;2022-08-19T09:31:39;5.80;;;4.50;;
69892;SDS011;61212;42.688;22.176;2022-08-19T09:34:05;9.65;;;4.82;;
69892;SDS011;61212;42.688;22.176;2022-08-19T09:36:33;5.63;;;3.85;;
69892;SDS011;61212;42.688;22.176;2022-08-19T09:39:04;7.10;;;4.15;;
69892;SDS011;61212;42.688;22.176;2022-08-19T09:41:30;5.82;;;3.80;;
69892;SDS011;61212;42.688;22.176;2022-08-19T09:43:57;5.47;;;3.47;;
69892;SDS011;61212;42.688;22.176;2022-08-19T09:46:25;5.57;;;3.63;;
69892;SDS011;61212;42.688;22.176;2022-08-19T09:48:52;5.75;;;4.25;;
69892;SDS011;61212;42.688;22.176;2022-08-19T09:51:23;8.57;;;4.10;;
69892;SDS011;61212;42.688;22.176;2022-08-19T09:53:51;5.57;;;3.25;;
69892;SDS011;61212;42.688;22.176;2022-08-19T09:59:09;6.93;;;3.33;;
69892;SDS011;61212;42.688;22.176;2022-08-19T10:01:37;6.28;;;3.97;;
69892;SDS011;61212;42.688;22.176;2022-08-19T10:04:03;6.40;;;5.55;;
69892;SDS011;61212;42.688;22.176;2022-08-19T10:06:36;7.47;;;3.88;;
69892;SDS011;61212;42.688;22.176;2022-08-19T10:09:05;6.72;;;3.85;;
69892;SDS011;61212;42.688;22.176;2022-08-19T10:14:36;7.55;;;4.28;;
69892;SDS011;61212;42.688;22.176;2022-08-19T10:17:02;6.80;;;3.97;;
69892;SDS011;61212;42.688;22.176;2022-08-19T10:19:28;8.30;;;3.85;;
69892;SDS011;61212;42.688;22.176;2022-08-19T10:22:02;4.53;;;3.50;;
69892;SDS011;61212;42.688;22.176;2022-08-19T10:24:28;9.70;;;3.70;;
69892;SDS011;61212;42.688;22.176;2022-08-19T10:26:56;6.70;;;3.60;;
69892;SDS011;61212;42.688;22.176;2022-08-19T10:29:22;5.78;;;3.80;;
69892;SDS011;61212;42.688;22.176;2022-08-19T10:31:48;7.15;;;3.85;;
69892;SDS011;61212;42.688;22.176;2022-08-19T10:34:14;21.33;;;4.47;;
69892;SDS011;61212;42.688;22.176;2022-08-19T10:36:40;8.50;;;3.28;;
69892;SDS011;61212;42.688;22.176;2022-08-19T10:39:07;5.18;;;3.80;;
69892;SDS011;61212;42.688;22.176;2022-08-19T10:41:52;9.95;;;3.58;;
69892;SDS011;61212;42.688;22.176;2022-08-19T10:44:18;8.18;;;3.47;;
69892;SDS011;61212;42.688;22.176;2022-08-19T10:46:46;10.15;;;3.50;;
69892;SDS011;61212;42.688;22.176;2022-08-19T10:49:12;11.23;;;3.83;;
69892;SDS011;61212;42.688;22.176;2022-08-19T10:51:38;8.73;;;3.70;;
69892;SDS011;61212;42.688;22.176;2022-08-19T10:54:24;9.60;;;3.65;;
69892;SDS011;61212;42.688;22.176;2022-08-19T10:57:10;5.60;;;3.33;;
69892;SDS011;61212;42.688;22.176;2022-08-19T10:59:36;9.90;;;3.53;;
69892;SDS011;61212;42.688;22.176;2022-08-19T11:02:04;6.90;;;3.05;;
69892;SDS011;61212;42.688;22.176;2022-08-19T11:04:30;6.63;;;3.53;;
69892;SDS011;61212;42.688;22.176;2022-08-19T11:06:57;7.32;;;3.33;;
69892;SDS011;61212;42.688;22.176;2022-08-19T11:09:24;8.98;;;3.58;;
69892;SDS011;61212;42.688;22.176;2022-08-19T11:11:51;6.53;;;3.20;;
69892;SDS011;61212;42.688;22.176;2022-08-19T11:14:19;11.75;;;3.47;;
69892;SDS011;61212;42.688;22.176;2022-08-19T11:16:46;9.65;;;4.07;;
69892;SDS011;61212;42.688;22.176;2022-08-19T11:19:13;10.40;;;3.38;;
69892;SDS011;61212;42.688;22.176;2022-08-19T11:21:42;7.35;;;2.47;;
69892;SDS011;61212;42.688;22.176;2022-08-19T11:24:12;9.88;;;3.10;;
69892;SDS011;61212;42.688;22.176;2022-08-19T11:26:39;8.05;;;3.30;;
69892;SDS011;61212;42.688;22.176;2022-08-19T11:29:07;7.15;;;2.90;;
69892;SDS011;61212;42.688;22.176;2022-08-19T11:31:37;10.73;;;3.90;;
69892;SDS011;61212;42.688;22.176;2022-08-19T11:34:05;9.90;;;3.28;;
69892;SDS011;61212;42.688;22.176;2022-08-19T11:36:32;14.57;;;8.85;;
69892;SDS011;61212;42.688;22.176;2022-08-19T11:38:58;10.05;;;5.53;;
69892;SDS011;61212;42.688;22.176;2022-08-19T11:41:25;8.02;;;2.92;;
69892;SDS011;61212;42.688;22.176;2022-08-19T11:43:52;6.40;;;2.67;;
69892;SDS011;61212;42.688;22.176;2022-08-19T11:46:20;5.70;;;2.40;;
69892;SDS011;61212;42.688;22.176;2022-08-19T11:48:47;12.70;;;2.70;;
69892;SDS011;61212;42.688;22.176;2022-08-19T11:51:19;10.90;;;2.75;;
69892;SDS011;61212;42.688;22.176;2022-08-19T11:53:46;21.00;;;3.22;;
69892;SDS011;61212;42.688;22.176;2022-08-19T11:56:12;13.73;;;3.58;;
69892;SDS011;61212;42.688;22.176;2022-08-19T11:58:39;8.80;;;3.30;;
69892;SDS011;61212;42.688;22.176;2022-08-19T12:01:09;9.23;;;3.53;;
69892;SDS011;61212;42.688;22.176;2022-08-19T12:03:36;10.25;;;2.50;;
69892;SDS011;61212;42.688;22.176;2022-08-19T12:06:06;7.45;;;2.90;;
69892;SDS011;61212;42.688;22.176;2022-08-19T12:08:33;12.07;;;3.33;;
69892;SDS011;61212;42.688;22.176;2022-08-19T12:10:59;7.32;;;3.28;;
69892;SDS011;61212;42.688;22.176;2022-08-19T12:13:29;8.57;;;3.88;;
69892;SDS011;61212;42.688;22.176;2022-08-19T12:15:55;7.38;;;2.63;;
69892;SDS011;61212;42.688;22.176;2022-08-19T12:18:21;9.05;;;3.78;;
69892;SDS011;61212;42.688;22.176;2022-08-19T12:20:50;15.20;;;6.53;;
69892;SDS011;61212;42.688;22.176;2022-08-19T12:23:16;11.45;;;3.80;;
69892;SDS011;61212;42.688;22.176;2022-08-19T12:25:43;10.27;;;3.30;;
69892;SDS011;61212;42.688;22.176;2022-08-19T12:28:20;12.32;;;3.03;;
69892;SDS011;61212;42.688;22.176;2022-08-19T12:30:48;9.82;;;3.00;;
69892;SDS011;61212;42.688;22.176;2022-08-19T12:33:16;5.25;;;2.90;;
69892;SDS011;61212;42.688;22.176;2022-08-19T12:35:45;10.13;;;2.88;;
69892;SDS011;61212;42.688;22.176;2022-08-19T12:38:18;8.55;;;2.90;;
69892;SDS011;61212;42.688;22.176;2022-08-19T12:40:49;7.07;;;2.60;;
69892;SDS011;61212;42.688;22.176;2022-08-19T12:46:19;12.65;;;3.38;;
69892;SDS011;61212;42.688;22.176;2022-08-19T12:48:45;11.50;;;3.10;;
69892;SDS011;61212;42.688;22.176;2022-08-19T12:51:12;13.23;;;3.35;;
69892;SDS011;61212;42.688;22.176;2022-08-19T12:53:40;13.98;;;3.28;;
69892;SDS011;61212;42.688;22.176;2022-08-19T12:56:22;8.38;;;2.80;;
69892;SDS011;61212;42.688;22.176;2022-08-19T12:58:48;15.80;;;3.45;;
69892;SDS011;61212;42.688;22.176;2022-08-19T13:01:14;6.50;;;3.28;;
69892;SDS011;61212;42.688;22.176;2022-08-19T13:03:41;12.93;;;3.53;;
69892;SDS011;61212;42.688;22.176;2022-08-19T13:06:08;10.48;;;3.70;;
69892;SDS011;61212;42.688;22.176;2022-08-19T13:08:34;9.80;;;2.83;;
69892;SDS011;61212;42.688;22.176;2022-08-19T13:13:59;5.82;;;2.80;;
69892;SDS011;61212;42.688;22.176;2022-08-19T13:16:25;7.88;;;3.63;;
69892;SDS011;61212;42.688;22.176;2022-08-19T13:18:52;8.70;;;3.22;;
69892;SDS011;61212;42.688;22.176;2022-08-19T13:21:19;16.42;;;4.15;;
69892;SDS011;61212;42.688;22.176;2022-08-19T13:23:48;6.93;;;3.47;;
69892;SDS011;61212;42.688;22.176;2022-08-19T13:26:29;11.68;;;3.25;;
69892;SDS011;61212;42.688;22.176;2022-08-19T13:28:55;7.22;;;3.35;;
69892;SDS011;61212;42.688;22.176;2022-08-19T13:31:40;9.60;;;4.93;;
69892;SDS011;61212;42.688;22.176;2022-08-19T13:34:30;13.80;;;3.53;;
69892;SDS011;61212;42.688;22.176;2022-08-19T13:36:59;8.57;;;3.47;;
69892;SDS011;61212;42.688;22.176;2022-08-19T13:39:28;8.75;;;3.83;;
69892;SDS011;61212;42.688;22.176;2022-08-19T13:41:54;30.92;;;21.90;;
69892;SDS011;61212;42.688;22.176;2022-08-19T13:44:20;12.25;;;3.33;;
69892;SDS011;61212;42.688;22.176;2022-08-19T13:46:46;12.35;;;4.20;;
69892;SDS011;61212;42.688;22.176;2022-08-19T13:49:14;13.95;;;9.10;;
69892;SDS011;61212;42.688;22.176;2022-08-19T13:51:40;8.18;;;3.78;;
69892;SDS011;61212;42.688;22.176;2022-08-19T13:54:08;19.13;;;9.57;;
69892;SDS011;61212;42.688;22.176;2022-08-19T13:59:58;18.85;;;4.50;;
69892;SDS011;61212;42.688;22.176;2022-08-19T14:02:24;14.50;;;4.10;;
69892;SDS011;61212;42.688;22.176;2022-08-19T14:04:51;10.38;;;3.47;;
69892;SDS011;61212;42.688;22.176;2022-08-19T14:07:17;9.07;;;3.28;;
69892;SDS011;61212;42.688;22.176;2022-08-19T14:09:43;9.98;;;3.55;;
69892;SDS011;61212;42.688;22.176;2022-08-19T14:12:08;15.52;;;5.45;;
69892;SDS011;61212;42.688;22.176;2022-08-19T14:14:38;13.15;;;4.65;;
69892;SDS011;61212;42.688;22.176;2022-08-19T14:17:07;16.27;;;4.10;;
69892;SDS011;61212;42.688;22.176;2022-08-19T14:19:34;7.88;;;2.70;;
69892;SDS011;61212;42.688;22.176;2022-08-19T14:22:01;15.57;;;4.15;;
69892;SDS011;61212;42.688;22.176;2022-08-19T14:24:27;14.32;;;4.78;;
69892;SDS011;61212;42.688;22.176;2022-08-19T14:26:53;16.15;;;4.90;;
69892;SDS011;61212;42.688;22.176;2022-08-19T14:29:19;15.75;;;5.53;;
69892;SDS011;61212;42.688;22.176;2022-08-19T14:31:45;15.43;;;3.58;;
69892;SDS011;61212;42.688;22.176;2022-08-19T14:34:10;15.57;;;3.70;;
69892;SDS011;61212;42.688;22.176;2022-08-19T14:36:37;18.27;;;3.80;;
69892;SDS011;61212;42.688;22.176;2022-08-19T14:39:04;14.88;;;4.30;;
69892;SDS011;61212;42.688;22.176;2022-08-19T14:44:33;18.63;;;3.80;;
69892;SDS011;61212;42.688;22.176;2022-08-19T14:46:59;13.00;;;3.90;;
69892;SDS011;61212;42.688;22.176;2022-08-19T14:49:25;19.17;;;4.60;;
69892;SDS011;61212;42.688;22.176;2022-08-19T14:51:51;18.77;;;3.75;;
69892;SDS011;61212;42.688;22.176;2022-08-19T14:54:16;15.75;;;3.90;;
69892;SDS011;61212;42.688;22.176;2022-08-19T14:59:55;14.15;;;3.72;;
69892;SDS011;61212;42.688;22.176;2022-08-19T15:02:22;10.95;;;3.50;;
69892;SDS011;61212;42.688;22.176;2022-08-19T15:04:48;21.67;;;3.67;;
69892;SDS011;61212;42.688;22.176;2022-08-19T15:07:15;25.42;;;4.70;;
69892;SDS011;61212;42.688;22.176;2022-08-19T15:09:41;19.27;;;3.85;;
69892;SDS011;61212;42.688;22.176;2022-08-19T15:15:28;14.95;;;3.95;;
69892;SDS011;61212;42.688;22.176;2022-08-19T15:17:55;13.35;;;4.03;;
69892;SDS011;61212;42.688;22.176;2022-08-19T15:20:27;13.07;;;3.83;;
69892;SDS011;61212;42.688;22.176;2022-08-19T15:22:53;19.35;;;4.28;;
69892;SDS011;61212;42.688;22.176;2022-08-19T15:25:19;13.20;;;3.95;;
69892;SDS011;61212;42.688;22.176;2022-08-19T15:27:45;19.05;;;3.58;;
69892;SDS011;61212;42.688;22.176;2022-08-19T15:30:17;20.33;;;3.65;;
69892;SDS011;61212;42.688;22.176;2022-08-19T15:32:53;18.67;;;4.72;;
69892;SDS011;61212;42.688;22.176;2022-08-19T15:35:21;19.65;;;3.63;;
69892;SDS011;61212;42.688;22.176;2022-08-19T15:37:48;17.30;;;3.78;;
69892;SDS011;61212;42.688;22.176;2022-08-19T15:40:16;13.88;;;3.75;;
69892;SDS011;61212;42.688;22.176;2022-08-19T15:42:42;17.20;;;3.83;;
69892;SDS011;61212;42.688;22.176;2022-08-19T15:45:09;14.85;;;3.45;;
69892;SDS011;61212;42.688;22.176;2022-08-19T15:47:36;33.55;;;4.75;;
69892;SDS011;61212;42.688;22.176;2022-08-19T15:50:07;30.50;;;4.15;;
69892;SDS011;61212;42.688;22.176;2022-08-19T15:52:36;15.35;;;3.92;;
69892;SDS011;61212;42.688;22.176;2022-08-19T15:55:10;21.25;;;4.55;;
69892;SDS011;61212;42.688;22.176;2022-08-19T15:57:36;16.27;;;3.40;;
69892;SDS011;61212;42.688;22.176;2022-08-19T16:00:20;16.13;;;4.03;;
69892;SDS011;61212;42.688;22.176;2022-08-19T16:03:04;12.75;;;3.65;;
69892;SDS011;61212;42.688;22.176;2022-08-19T16:06:08;16.00;;;4.78;;
69892;SDS011;61212;42.688;22.176;2022-08-19T16:08:50;16.92;;;6.53;;
69892;SDS011;61212;42.688;22.176;2022-08-19T16:11:17;13.63;;;4.68;;
69892;SDS011;61212;42.688;22.176;2022-08-19T16:13:47;11.32;;;3.45;;
69892;SDS011;61212;42.688;22.176;2022-08-19T16:16:23;12.88;;;3.65;;
69892;SDS011;61212;42.688;22.176;2022-08-19T16:18:55;15.60;;;3.50;;